sensor_id;sensor_type;location;lat;lon;timestamp;noise_LAeq;noise_LA_min;noise_LA_max;noise_LA01;noise_LA95
186;Laerm;55473;48.800;9.002;2023-03-31T00:01:40;43.16;36.10;54.64;;
186;Laerm;55473;48.800;9.002;2023-03-31T00:04:10;42.54;35.26;56.61;;
186;Laerm;55473;48.800;9.002;2023-03-31T00:06:40;42.12;35.03;54.71;;
186;Laerm;55473;48.800;9.002;2023-03-31T00:09:18;42.28;35.04;53.90;;
186;Laerm;55473;48.800;9.002;2023-03-31T00:11:51;42.37;34.56;53.88;;
186;Laerm;55473;48.800;9.002;2023-03-31T00:14:19;40.22;34.84;52.80;;
186;Laerm;55473;48.800;9.002;2023-03-31T00:16:45;41.27;35.73;54.77;;
186;Laerm;55473;48.800;9.002;2023-03-31T00:19:13;41.65;36.75;51.82;;
186;Laerm;55473;48.800;9.002;2023-03-31T00:21:49;41.42;36.62;54.00;;
186;Laerm;55473;48.800;9.002;2023-03-31T00:24:17;40.78;36.29;53.05;;
186;Laerm;55473;48.800;9.002;2023-03-31T00:26:43;40.42;35.24;50.99;;
186;Laerm;55473;48.800;9.002;2023-03-31T00:29:12;41.37;36.22;50.66;;
186;Laerm;55473;48.800;9.002;2023-03-31T00:31:39;41.15;35.76;54.36;;
186;Laerm;55473;48.800;9.002;2023-03-31T00:34:05;41.83;34.76;54.39;;
186;Laerm;55473;48.800;9.002;2023-03-31T00:36:31;41.97;34.97;55.05;;
186;Laerm;55473;48.800;9.002;2023-03-31T00:39:05;41.42;35.12;54.00;;
186;Laerm;55473;48.800;9.002;2023-03-31T00:41:37;40.64;35.23;51.96;;
186;Laerm;55473;48.800;9.002;2023-03-31T00:44:17;40.36;35.22;51.79;;
186;Laerm;55473;48.800;9.002;2023-03-31T00:49:45;39.02;34.28;49.57;;
186;Laerm;55473;48.800;9.002;2023-03-31T00:52:20;39.94;35.01;50.09;;
186;Laerm;55473;48.800;9.002;2023-03-31T00:54:57;41.21;36.05;53.13;;
186;Laerm;55473;48.800;9.002;2023-03-31T00:57:25;40.80;35.45;53.01;;
186;Laerm;55473;48.800;9.002;2023-03-31T01:00:00;39.90;34.95;53.60;;
186;Laerm;55473;48.800;9.002;2023-03-31T01:02:34;37.38;33.99;47.92;;
186;Laerm;55473;48.800;9.002;2023-03-31T01:05:08;39.14;34.16;51.07;;
186;Laerm;55473;48.800;9.002;2023-03-31T01:07:42;39.65;34.50;50.01;;
186;Laerm;55473;48.800;9.002;2023-03-31T01:10:10;40.19;34.68;57.28;;
186;Laerm;55473;48.800;9.002;2023-03-31T01:12:41;39.57;35.31;51.50;;
186;Laerm;55473;48.800;9.002;2023-03-31T01:15:12;41.41;34.89;58.39;;
186;Laerm;55473;48.800;9.002;2023-03-31T01:17:39;41.02;34.45;55.44;;
186;Laerm;55473;48.800;9.002;2023-03-31T01:29:19;40.47;34.33;55.47;;
186;Laerm;55473;48.800;9.002;2023-03-31T01:38:37;41.80;35.94;54.04;;
186;Laerm;55473;48.800;9.002;2023-03-31T01:41:21;40.74;35.78;53.64;;
186;Laerm;55473;48.800;9.002;2023-03-31T01:46:54;42.24;36.34;55.48;;
186;Laerm;55473;48.800;9.002;2023-03-31T01:49:50;42.65;37.69;57.44;;
186;Laerm;55473;48.800;9.002;2023-03-31T01:52:32;41.51;37.25;54.88;;
186;Laerm;55473;48.800;9.002;2023-03-31T01:57:41;40.77;35.74;52.63;;
186;Laerm;55473;48.800;9.002;2023-03-31T02:00:16;37.57;34.62;47.86;;
186;Laerm;55473;48.800;9.002;2023-03-31T02:02:56;44.71;35.40;56.61;;
186;Laerm;55473;48.800;9.002;2023-03-31T02:05:32;43.19;35.12;60.57;;
186;Laerm;55473;48.800;9.002;2023-03-31T02:08:15;43.06;35.23;57.05;;
186;Laerm;55473;48.800;9.002;2023-03-31T02:10:44;41.74;36.52;52.35;;
186;Laerm;55473;48.800;9.002;2023-03-31T02:13:15;42.81;36.79;53.33;;
186;Laerm;55473;48.800;9.002;2023-03-31T02:15:48;42.97;36.63;59.64;;
186;Laerm;55473;48.800;9.002;2023-03-31T02:18:21;42.50;36.34;57.28;;
186;Laerm;55473;48.800;9.002;2023-03-31T02:20:53;41.10;35.39;55.81;;
186;Laerm;55473;48.800;9.002;2023-03-31T02:23:26;41.52;34.86;56.56;;
186;Laerm;55473;48.800;9.002;2023-03-31T02:28:38;42.15;35.54;56.53;;
186;Laerm;55473;48.800;9.002;2023-03-31T02:31:45;48.14;36.21;61.37;;
186;Laerm;55473;48.800;9.002;2023-03-31T02:34:12;44.24;35.99;57.48;;
186;Laerm;55473;48.800;9.002;2023-03-31T02:36:42;43.79;36.67;57.80;;
186;Laerm;55473;48.800;9.002;2023-03-31T02:39:26;43.71;36.17;56.90;;
186;Laerm;55473;48.800;9.002;2023-03-31T02:41:53;44.01;36.09;57.89;;
186;Laerm;55473;48.800;9.002;2023-03-31T02:44:19;43.19;35.35;57.46;;
186;Laerm;55473;48.800;9.002;2023-03-31T02:46:47;43.08;34.66;57.85;;
186;Laerm;55473;48.800;9.002;2023-03-31T02:49:17;46.59;35.19;58.12;;
186;Laerm;55473;48.800;9.002;2023-03-31T02:58:16;44.52;35.99;57.50;;
186;Laerm;55473;48.800;9.002;2023-03-31T03:01:23;43.48;36.45;56.34;;
186;Laerm;55473;48.800;9.002;2023-03-31T03:07:57;43.58;36.93;56.70;;
186;Laerm;55473;48.800;9.002;2023-03-31T03:10:57;43.37;36.59;55.54;;
186;Laerm;55473;48.800;9.002;2023-03-31T03:13:51;43.45;36.53;56.89;;
186;Laerm;55473;48.800;9.002;2023-03-31T03:17:06;47.31;37.51;59.79;;
186;Laerm;55473;48.800;9.002;2023-03-31T03:19:34;44.59;36.74;56.20;;
186;Laerm;55473;48.800;9.002;2023-03-31T03:22:00;43.30;36.98;54.94;;
186;Laerm;55473;48.800;9.002;2023-03-31T03:24:26;46.00;38.51;61.24;;
186;Laerm;55473;48.800;9.002;2023-03-31T03:26:55;53.68;38.25;73.57;;
186;Laerm;55473;48.800;9.002;2023-03-31T03:29:21;47.49;39.67;57.99;;
186;Laerm;55473;48.800;9.002;2023-03-31T03:31:47;47.19;39.05;58.02;;
186;Laerm;55473;48.800;9.002;2023-03-31T03:34:13;49.28;40.04;60.97;;
186;Laerm;55473;48.800;9.002;2023-03-31T03:36:39;46.43;38.04;66.59;;
186;Laerm;55473;48.800;9.002;2023-03-31T03:39:06;56.13;38.94;72.30;;
186;Laerm;55473;48.800;9.002;2023-03-31T03:41:33;57.68;41.56;73.80;;
186;Laerm;55473;48.800;9.002;2023-03-31T03:43:59;56.55;41.68;72.25;;
186;Laerm;55473;48.800;9.002;2023-03-31T03:46:25;52.57;39.12;65.37;;
186;Laerm;55473;48.800;9.002;2023-03-31T03:48:51;56.51;41.16;70.63;;
186;Laerm;55473;48.800;9.002;2023-03-31T03:51:18;57.44;40.87;71.69;;
186;Laerm;55473;48.800;9.002;2023-03-31T03:53:44;57.78;40.54;71.18;;
186;Laerm;55473;48.800;9.002;2023-03-31T03:56:10;57.28;40.31;73.15;;
186;Laerm;55473;48.800;9.002;2023-03-31T03:58:36;56.98;41.47;71.71;;
186;Laerm;55473;48.800;9.002;2023-03-31T04:01:02;57.66;40.91;73.48;;
186;Laerm;55473;48.800;9.002;2023-03-31T04:03:29;59.74;42.01;73.05;;
186;Laerm;55473;48.800;9.002;2023-03-31T04:05:56;54.83;40.33;70.85;;
186;Laerm;55473;48.800;9.002;2023-03-31T04:08:22;54.15;41.26;67.55;;
186;Laerm;55473;48.800;9.002;2023-03-31T04:10:49;57.59;42.32;70.46;;
186;Laerm;55473;48.800;9.002;2023-03-31T04:13:17;54.23;42.29;66.75;;
186;Laerm;55473;48.800;9.002;2023-03-31T04:15:44;54.25;42.25;67.31;;
186;Laerm;55473;48.800;9.002;2023-03-31T04:18:11;58.22;42.10;68.62;;
186;Laerm;55473;48.800;9.002;2023-03-31T04:20:52;56.85;42.95;67.62;;
186;Laerm;55473;48.800;9.002;2023-03-31T04:23:36;60.02;42.32;74.44;;
186;Laerm;55473;48.800;9.002;2023-03-31T04:26:16;56.39;43.44;73.75;;
186;Laerm;55473;48.800;9.002;2023-03-31T04:28:44;54.92;43.53;66.60;;
186;Laerm;55473;48.800;9.002;2023-03-31T04:31:15;56.15;43.71;69.20;;
186;Laerm;55473;48.800;9.002;2023-03-31T04:33:53;61.30;42.71;72.84;;
186;Laerm;55473;48.800;9.002;2023-03-31T04:36:20;57.39;44.91;74.96;;
186;Laerm;55473;48.800;9.002;2023-03-31T04:38:49;54.86;43.21;70.18;;
186;Laerm;55473;48.800;9.002;2023-03-31T04:41:16;52.87;43.75;66.79;;
186;Laerm;55473;48.800;9.002;2023-03-31T04:43:42;53.22;44.38;63.55;;
186;Laerm;55473;48.800;9.002;2023-03-31T04:46:08;53.96;43.96;63.25;;
186;Laerm;55473;48.800;9.002;2023-03-31T04:48:35;55.15;44.68;70.11;;
186;Laerm;55473;48.800;9.002;2023-03-31T04:51:02;50.90;44.00;64.99;;
186;Laerm;55473;48.800;9.002;2023-03-31T04:53:28;51.16;43.60;64.92;;
186;Laerm;55473;48.800;9.002;2023-03-31T04:55:54;49.57;44.15;58.19;;
186;Laerm;55473;48.800;9.002;2023-03-31T04:58:20;51.14;43.78;62.81;;
186;Laerm;55473;48.800;9.002;2023-03-31T05:00:46;51.42;44.14;65.15;;
186;Laerm;55473;48.800;9.002;2023-03-31T05:03:12;52.56;45.60;64.26;;
186;Laerm;55473;48.800;9.002;2023-03-31T05:05:37;55.61;44.97;71.88;;
186;Laerm;55473;48.800;9.002;2023-03-31T05:08:03;56.18;45.41;73.14;;
186;Laerm;55473;48.800;9.002;2023-03-31T05:10:30;56.93;45.02;70.17;;
186;Laerm;55473;48.800;9.002;2023-03-31T05:12:56;53.34;44.91;66.17;;
186;Laerm;55473;48.800;9.002;2023-03-31T05:15:23;58.27;49.76;71.78;;
186;Laerm;55473;48.800;9.002;2023-03-31T05:17:50;58.61;51.72;74.67;;
186;Laerm;55473;48.800;9.002;2023-03-31T05:20:18;60.62;52.10;75.27;;
186;Laerm;55473;48.800;9.002;2023-03-31T05:22:45;57.27;50.69;72.13;;
186;Laerm;55473;48.800;9.002;2023-03-31T05:25:13;57.09;49.51;69.14;;
186;Laerm;55473;48.800;9.002;2023-03-31T05:27:47;57.51;50.57;69.99;;
186;Laerm;55473;48.800;9.002;2023-03-31T05:30:14;57.93;51.07;71.14;;
186;Laerm;55473;48.800;9.002;2023-03-31T05:32:41;59.23;50.33;80.25;;
186;Laerm;55473;48.800;9.002;2023-03-31T05:35:07;55.77;49.49;71.12;;
186;Laerm;55473;48.800;9.002;2023-03-31T05:37:33;57.00;49.79;70.16;;
186;Laerm;55473;48.800;9.002;2023-03-31T05:39:59;55.66;47.52;71.92;;
186;Laerm;55473;48.800;9.002;2023-03-31T05:42:25;57.93;48.39;70.13;;
186;Laerm;55473;48.800;9.002;2023-03-31T05:44:51;60.88;51.92;75.55;;
186;Laerm;55473;48.800;9.002;2023-03-31T05:47:17;60.89;53.58;77.02;;
186;Laerm;55473;48.800;9.002;2023-03-31T05:49:43;58.27;50.96;75.69;;
186;Laerm;55473;48.800;9.002;2023-03-31T05:52:10;55.65;46.91;67.90;;
186;Laerm;55473;48.800;9.002;2023-03-31T05:54:37;54.48;45.90;71.52;;
186;Laerm;55473;48.800;9.002;2023-03-31T05:57:02;51.08;44.97;69.59;;
186;Laerm;55473;48.800;9.002;2023-03-31T05:59:29;51.70;44.88;69.17;;
186;Laerm;55473;48.800;9.002;2023-03-31T06:01:55;54.28;46.46;70.33;;
186;Laerm;55473;48.800;9.002;2023-03-31T06:04:21;54.87;47.46;72.81;;
186;Laerm;55473;48.800;9.002;2023-03-31T06:06:47;53.55;46.67;73.66;;
186;Laerm;55473;48.800;9.002;2023-03-31T06:09:15;54.60;47.89;75.03;;
186;Laerm;55473;48.800;9.002;2023-03-31T06:11:42;54.55;47.51;69.09;;
186;Laerm;55473;48.800;9.002;2023-03-31T06:14:08;51.83;44.71;69.52;;
186;Laerm;55473;48.800;9.002;2023-03-31T06:16:34;53.71;46.58;70.04;;
186;Laerm;55473;48.800;9.002;2023-03-31T06:19:00;52.17;45.39;69.51;;
186;Laerm;55473;48.800;9.002;2023-03-31T06:21:26;50.33;44.60;66.04;;
186;Laerm;55473;48.800;9.002;2023-03-31T06:23:52;53.19;44.72;69.47;;
186;Laerm;55473;48.800;9.002;2023-03-31T06:26:21;50.10;44.39;64.79;;
186;Laerm;55473;48.800;9.002;2023-03-31T06:28:47;51.83;44.39;71.76;;
186;Laerm;55473;48.800;9.002;2023-03-31T06:31:17;50.75;45.10;67.65;;
186;Laerm;55473;48.800;9.002;2023-03-31T06:33:44;51.23;44.82;66.99;;
186;Laerm;55473;48.800;9.002;2023-03-31T06:36:13;52.42;43.90;68.32;;
186;Laerm;55473;48.800;9.002;2023-03-31T06:38:40;55.34;46.23;69.49;;
186;Laerm;55473;48.800;9.002;2023-03-31T06:41:10;58.53;44.80;72.87;;
186;Laerm;55473;48.800;9.002;2023-03-31T06:43:36;58.49;47.89;79.76;;
186;Laerm;55473;48.800;9.002;2023-03-31T06:46:03;59.91;48.24;75.12;;
186;Laerm;55473;48.800;9.002;2023-03-31T06:48:29;55.85;47.54;68.83;;
186;Laerm;55473;48.800;9.002;2023-03-31T06:50:59;56.79;47.93;73.76;;
186;Laerm;55473;48.800;9.002;2023-03-31T06:53:27;57.12;49.61;75.73;;
186;Laerm;55473;48.800;9.002;2023-03-31T06:55:53;55.79;49.17;78.18;;
186;Laerm;55473;48.800;9.002;2023-03-31T06:58:19;57.04;49.59;72.69;;
186;Laerm;55473;48.800;9.002;2023-03-31T07:00:45;57.99;50.71;73.30;;
186;Laerm;55473;48.800;9.002;2023-03-31T07:03:13;57.06;50.56;73.48;;
186;Laerm;55473;48.800;9.002;2023-03-31T07:05:39;55.65;48.12;71.37;;
186;Laerm;55473;48.800;9.002;2023-03-31T07:08:05;57.61;49.41;71.52;;
186;Laerm;55473;48.800;9.002;2023-03-31T07:10:32;54.03;46.47;68.76;;
186;Laerm;55473;48.800;9.002;2023-03-31T07:12:58;52.62;44.95;68.30;;
186;Laerm;55473;48.800;9.002;2023-03-31T07:15:25;50.19;44.67;67.80;;
186;Laerm;55473;48.800;9.002;2023-03-31T07:17:56;52.72;46.22;69.01;;
186;Laerm;55473;48.800;9.002;2023-03-31T07:20:28;52.85;44.82;69.44;;
186;Laerm;55473;48.800;9.002;2023-03-31T07:22:55;56.36;44.44;65.89;;
186;Laerm;55473;48.800;9.002;2023-03-31T07:25:21;53.15;44.12;69.48;;
186;Laerm;55473;48.800;9.002;2023-03-31T07:27:47;51.10;44.41;68.45;;
186;Laerm;55473;48.800;9.002;2023-03-31T07:30:17;53.14;43.94;68.91;;
186;Laerm;55473;48.800;9.002;2023-03-31T07:32:49;51.36;44.99;64.10;;
186;Laerm;55473;48.800;9.002;2023-03-31T07:35:16;50.42;43.89;68.03;;
186;Laerm;55473;48.800;9.002;2023-03-31T07:37:46;50.95;44.93;70.67;;
186;Laerm;55473;48.800;9.002;2023-03-31T07:40:21;50.47;44.80;69.09;;
186;Laerm;55473;48.800;9.002;2023-03-31T07:42:49;49.56;44.20;69.26;;
186;Laerm;55473;48.800;9.002;2023-03-31T07:45:21;53.90;43.20;71.45;;
186;Laerm;55473;48.800;9.002;2023-03-31T07:47:47;51.65;44.91;69.35;;
186;Laerm;55473;48.800;9.002;2023-03-31T07:50:15;56.08;44.78;65.34;;
186;Laerm;55473;48.800;9.002;2023-03-31T07:52:42;50.77;45.35;60.86;;
186;Laerm;55473;48.800;9.002;2023-03-31T07:55:09;52.42;44.14;65.74;;
186;Laerm;55473;48.800;9.002;2023-03-31T07:57:36;58.69;43.92;74.91;;
186;Laerm;55473;48.800;9.002;2023-03-31T08:00:04;52.38;44.75;68.45;;
186;Laerm;55473;48.800;9.002;2023-03-31T08:02:33;49.91;44.31;61.08;;
186;Laerm;55473;48.800;9.002;2023-03-31T08:04:59;48.30;43.84;56.05;;
186;Laerm;55473;48.800;9.002;2023-03-31T08:07:25;48.53;42.55;63.85;;
186;Laerm;55473;48.800;9.002;2023-03-31T08:09:56;53.13;43.30;73.77;;
186;Laerm;55473;48.800;9.002;2023-03-31T08:12:22;52.15;42.61;67.83;;
186;Laerm;55473;48.800;9.002;2023-03-31T08:14:48;54.04;41.94;69.28;;
186;Laerm;55473;48.800;9.002;2023-03-31T08:17:14;55.44;42.67;70.34;;
186;Laerm;55473;48.800;9.002;2023-03-31T08:19:40;54.62;44.26;68.85;;
186;Laerm;55473;48.800;9.002;2023-03-31T08:22:06;52.13;43.52;64.34;;
186;Laerm;55473;48.800;9.002;2023-03-31T08:24:32;53.97;41.93;70.02;;
186;Laerm;55473;48.800;9.002;2023-03-31T08:26:58;58.31;42.62;79.98;;
186;Laerm;55473;48.800;9.002;2023-03-31T08:29:24;52.19;42.21;71.25;;
186;Laerm;55473;48.800;9.002;2023-03-31T08:31:50;54.49;41.38;70.96;;
186;Laerm;55473;48.800;9.002;2023-03-31T08:34:16;50.11;42.19;60.90;;
186;Laerm;55473;48.800;9.002;2023-03-31T08:36:42;48.88;42.05;60.86;;
186;Laerm;55473;48.800;9.002;2023-03-31T08:39:08;48.89;41.86;60.61;;
186;Laerm;55473;48.800;9.002;2023-03-31T08:41:48;47.05;41.63;57.41;;
186;Laerm;55473;48.800;9.002;2023-03-31T08:47:06;49.24;42.32;65.22;;
186;Laerm;55473;48.800;9.002;2023-03-31T08:49:51;50.87;41.85;68.93;;
186;Laerm;55473;48.800;9.002;2023-03-31T08:52:35;51.48;43.58;67.27;;
186;Laerm;55473;48.800;9.002;2023-03-31T08:55:11;53.84;45.66;64.68;;
186;Laerm;55473;48.800;9.002;2023-03-31T08:57:59;52.41;44.07;69.14;;
186;Laerm;55473;48.800;9.002;2023-03-31T09:00:42;51.41;43.94;62.69;;
186;Laerm;55473;48.800;9.002;2023-03-31T09:03:37;51.99;44.06;66.51;;
186;Laerm;55473;48.800;9.002;2023-03-31T09:06:14;50.18;43.20;61.70;;
186;Laerm;55473;48.800;9.002;2023-03-31T09:08:41;52.12;43.73;67.62;;
186;Laerm;55473;48.800;9.002;2023-03-31T09:11:33;52.72;43.89;70.23;;
186;Laerm;55473;48.800;9.002;2023-03-31T09:14:29;52.41;44.16;66.48;;
186;Laerm;55473;48.800;9.002;2023-03-31T09:17:11;53.74;43.97;81.20;;
186;Laerm;55473;48.800;9.002;2023-03-31T09:19:53;55.42;44.28;69.55;;
186;Laerm;55473;48.800;9.002;2023-03-31T09:22:33;55.69;44.02;76.68;;
186;Laerm;55473;48.800;9.002;2023-03-31T09:27:40;55.12;46.39;67.91;;
186;Laerm;55473;48.800;9.002;2023-03-31T09:35:40;57.81;46.74;70.90;;
186;Laerm;55473;48.800;9.002;2023-03-31T09:38:11;58.55;47.85;67.49;;
186;Laerm;55473;48.800;9.002;2023-03-31T09:40:38;52.91;44.49;67.29;;
186;Laerm;55473;48.800;9.002;2023-03-31T09:43:21;52.11;44.51;66.11;;
186;Laerm;55473;48.800;9.002;2023-03-31T09:45:47;54.96;45.27;65.68;;
186;Laerm;55473;48.800;9.002;2023-03-31T09:48:24;54.15;44.34;72.79;;
186;Laerm;55473;48.800;9.002;2023-03-31T09:50:59;54.81;45.11;76.28;;
186;Laerm;55473;48.800;9.002;2023-03-31T09:53:52;53.03;43.80;72.72;;
186;Laerm;55473;48.800;9.002;2023-03-31T10:01:41;53.86;45.85;71.92;;
186;Laerm;55473;48.800;9.002;2023-03-31T10:04:22;52.92;43.23;72.74;;
186;Laerm;55473;48.800;9.002;2023-03-31T10:06:49;51.64;43.76;69.15;;
186;Laerm;55473;48.800;9.002;2023-03-31T10:09:20;48.29;43.23;62.52;;
186;Laerm;55473;48.800;9.002;2023-03-31T10:12:01;52.36;45.17;65.52;;
186;Laerm;55473;48.800;9.002;2023-03-31T10:14:44;52.94;45.64;63.28;;
186;Laerm;55473;48.800;9.002;2023-03-31T10:17:22;55.35;46.35;68.67;;
186;Laerm;55473;48.800;9.002;2023-03-31T10:19:57;53.76;45.58;64.78;;
186;Laerm;55473;48.800;9.002;2023-03-31T10:22:30;50.24;44.76;63.79;;
186;Laerm;55473;48.800;9.002;2023-03-31T10:25:16;56.31;44.86;81.09;;
186;Laerm;55473;48.800;9.002;2023-03-31T10:27:47;53.71;47.23;73.76;;
186;Laerm;55473;48.800;9.002;2023-03-31T10:30:29;54.37;46.55;69.52;;
186;Laerm;55473;48.800;9.002;2023-03-31T10:33:06;56.85;45.37;72.75;;
186;Laerm;55473;48.800;9.002;2023-03-31T10:35:36;59.63;46.80;78.19;;
186;Laerm;55473;48.800;9.002;2023-03-31T10:38:14;55.28;45.09;74.82;;
186;Laerm;55473;48.800;9.002;2023-03-31T10:40:52;53.65;44.03;71.93;;
186;Laerm;55473;48.800;9.002;2023-03-31T10:43:46;56.18;44.81;73.48;;
186;Laerm;55473;48.800;9.002;2023-03-31T10:46:12;52.71;42.18;67.71;;
186;Laerm;55473;48.800;9.002;2023-03-31T10:48:40;50.31;43.28;61.05;;
186;Laerm;55473;48.800;9.002;2023-03-31T10:51:28;51.31;43.86;65.77;;
186;Laerm;55473;48.800;9.002;2023-03-31T10:54:00;52.28;45.35;66.71;;
186;Laerm;55473;48.800;9.002;2023-03-31T10:56:48;49.58;43.96;72.31;;
186;Laerm;55473;48.800;9.002;2023-03-31T11:06:07;53.77;45.61;70.11;;
186;Laerm;55473;48.800;9.002;2023-03-31T11:12:10;60.06;46.87;78.50;;
186;Laerm;55473;48.800;9.002;2023-03-31T11:23:48;59.23;52.29;80.54;;
186;Laerm;55473;48.800;9.002;2023-03-31T11:29:31;54.16;46.22;71.25;;
186;Laerm;55473;48.800;9.002;2023-03-31T11:35:33;53.57;45.46;69.95;;
186;Laerm;55473;48.800;9.002;2023-03-31T11:46:20;51.70;46.45;63.42;;
186;Laerm;55473;48.800;9.002;2023-03-31T11:49:27;51.60;45.95;65.16;;
186;Laerm;55473;48.800;9.002;2023-03-31T11:51:58;54.02;46.46;69.64;;
186;Laerm;55473;48.800;9.002;2023-03-31T11:58:04;50.51;43.96;70.59;;
186;Laerm;55473;48.800;9.002;2023-03-31T12:00:50;51.06;44.55;64.01;;
186;Laerm;55473;48.800;9.002;2023-03-31T12:06:13;51.25;44.35;65.95;;
186;Laerm;55473;48.800;9.002;2023-03-31T12:09:04;51.18;44.65;65.85;;
186;Laerm;55473;48.800;9.002;2023-03-31T12:14:26;49.42;43.02;65.72;;
186;Laerm;55473;48.800;9.002;2023-03-31T12:16:57;52.28;44.33;64.63;;
186;Laerm;55473;48.800;9.002;2023-03-31T12:24:40;53.57;41.96;66.89;;
186;Laerm;55473;48.800;9.002;2023-03-31T12:27:17;52.64;42.69;67.17;;
186;Laerm;55473;48.800;9.002;2023-03-31T12:33:06;48.95;43.33;60.28;;
186;Laerm;55473;48.800;9.002;2023-03-31T12:39:06;51.10;44.24;67.53;;
186;Laerm;55473;48.800;9.002;2023-03-31T12:44:52;52.84;42.45;73.78;;
186;Laerm;55473;48.800;9.002;2023-03-31T12:54:02;54.35;44.02;70.93;;
186;Laerm;55473;48.800;9.002;2023-03-31T12:59:42;50.15;45.06;59.16;;
186;Laerm;55473;48.800;9.002;2023-03-31T13:04:36;51.73;43.47;64.93;;
186;Laerm;55473;48.800;9.002;2023-03-31T13:07:04;50.84;44.37;66.77;;
186;Laerm;55473;48.800;9.002;2023-03-31T13:09:46;57.39;50.60;72.44;;
186;Laerm;55473;48.800;9.002;2023-03-31T13:12:19;56.97;50.62;72.67;;
186;Laerm;55473;48.800;9.002;2023-03-31T13:14:51;57.87;51.90;70.99;;
186;Laerm;55473;48.800;9.002;2023-03-31T13:17:30;58.07;50.08;68.79;;
186;Laerm;55473;48.800;9.002;2023-03-31T13:25:49;51.48;46.35;71.21;;
186;Laerm;55473;48.800;9.002;2023-03-31T13:33:40;57.65;45.52;74.57;;
186;Laerm;55473;48.800;9.002;2023-03-31T13:45:45;55.60;47.13;71.50;;
186;Laerm;55473;48.800;9.002;2023-03-31T13:51:25;56.93;49.97;74.17;;
186;Laerm;55473;48.800;9.002;2023-03-31T13:55:08;54.83;49.94;69.30;;
186;Laerm;55473;48.800;9.002;2023-03-31T14:00:29;53.20;46.83;70.26;;
186;Laerm;55473;48.800;9.002;2023-03-31T14:06:11;54.85;46.04;70.34;;
186;Laerm;55473;48.800;9.002;2023-03-31T14:08:54;50.65;45.38;62.16;;
186;Laerm;55473;48.800;9.002;2023-03-31T14:11:27;52.24;44.14;68.49;;
186;Laerm;55473;48.800;9.002;2023-03-31T14:14:16;53.47;43.19;73.83;;
186;Laerm;55473;48.800;9.002;2023-03-31T14:17:00;56.58;43.78;73.18;;
186;Laerm;55473;48.800;9.002;2023-03-31T14:20:07;51.77;43.17;73.30;;
186;Laerm;55473;48.800;9.002;2023-03-31T14:23:15;55.54;43.59;69.69;;
186;Laerm;55473;48.800;9.002;2023-03-31T14:25:52;51.59;43.74;73.92;;
186;Laerm;55473;48.800;9.002;2023-03-31T14:31:44;50.18;42.41;62.29;;
186;Laerm;55473;48.800;9.002;2023-03-31T14:34:46;50.16;43.80;59.68;;
186;Laerm;55473;48.800;9.002;2023-03-31T14:37:18;48.80;43.20;63.84;;
186;Laerm;55473;48.800;9.002;2023-03-31T14:39:54;49.22;43.20;61.58;;
186;Laerm;55473;48.800;9.002;2023-03-31T14:48:12;51.56;44.97;61.70;;
186;Laerm;55473;48.800;9.002;2023-03-31T14:50:43;53.44;43.91;69.25;;
186;Laerm;55473;48.800;9.002;2023-03-31T14:53:17;52.13;43.73;69.46;;
186;Laerm;55473;48.800;9.002;2023-03-31T14:55:45;49.50;43.49;60.84;;
186;Laerm;55473;48.800;9.002;2023-03-31T14:58:23;52.01;44.16;69.40;;
186;Laerm;55473;48.800;9.002;2023-03-31T15:00:49;50.32;43.95;61.27;;
186;Laerm;55473;48.800;9.002;2023-03-31T15:03:17;51.64;44.04;64.46;;
186;Laerm;55473;48.800;9.002;2023-03-31T15:05:43;50.69;43.21;63.50;;
186;Laerm;55473;48.800;9.002;2023-03-31T15:08:18;50.41;41.22;67.94;;
186;Laerm;55473;48.800;9.002;2023-03-31T15:10:57;51.54;42.69;72.68;;
186;Laerm;55473;48.800;9.002;2023-03-31T15:13:42;55.12;43.76;77.07;;
186;Laerm;55473;48.800;9.002;2023-03-31T15:19:29;52.11;45.31;69.35;;
186;Laerm;55473;48.800;9.002;2023-03-31T15:22:16;50.50;43.13;67.77;;
186;Laerm;55473;48.800;9.002;2023-03-31T15:24:44;50.97;42.59;70.69;;
186;Laerm;55473;48.800;9.002;2023-03-31T15:27:37;50.19;43.07;62.90;;
186;Laerm;55473;48.800;9.002;2023-03-31T15:30:17;49.85;44.84;62.30;;
186;Laerm;55473;48.800;9.002;2023-03-31T15:32:44;48.77;43.70;57.58;;
186;Laerm;55473;48.800;9.002;2023-03-31T15:35:40;52.57;45.09;66.42;;
186;Laerm;55473;48.800;9.002;2023-03-31T15:38:11;51.03;43.39;63.25;;
186;Laerm;55473;48.800;9.002;2023-03-31T15:40:41;51.95;44.12;64.01;;
186;Laerm;55473;48.800;9.002;2023-03-31T15:43:31;48.88;42.73;66.79;;
186;Laerm;55473;48.800;9.002;2023-03-31T15:45:59;49.92;42.08;65.21;;
186;Laerm;55473;48.800;9.002;2023-03-31T15:48:37;52.51;44.40;62.78;;
186;Laerm;55473;48.800;9.002;2023-03-31T15:53:48;51.62;43.12;74.01;;
186;Laerm;55473;48.800;9.002;2023-03-31T15:56:41;46.52;42.77;59.59;;
186;Laerm;55473;48.800;9.002;2023-03-31T15:59:29;51.74;42.21;69.05;;
186;Laerm;55473;48.800;9.002;2023-03-31T16:01:59;53.26;43.13;68.29;;
186;Laerm;55473;48.800;9.002;2023-03-31T16:04:32;51.94;44.09;66.49;;
186;Laerm;55473;48.800;9.002;2023-03-31T16:07:08;54.75;43.04;71.57;;
186;Laerm;55473;48.800;9.002;2023-03-31T16:10:08;58.03;44.23;71.49;;
186;Laerm;55473;48.800;9.002;2023-03-31T16:12:47;50.74;43.24;64.97;;
186;Laerm;55473;48.800;9.002;2023-03-31T16:15:20;50.94;43.76;65.25;;
186;Laerm;55473;48.800;9.002;2023-03-31T16:17:53;50.75;42.48;66.03;;
186;Laerm;55473;48.800;9.002;2023-03-31T16:20:36;52.84;44.90;69.49;;
186;Laerm;55473;48.800;9.002;2023-03-31T16:23:38;51.83;44.99;65.82;;
186;Laerm;55473;48.800;9.002;2023-03-31T16:26:07;51.72;44.85;69.81;;
186;Laerm;55473;48.800;9.002;2023-03-31T16:28:37;51.26;45.40;63.78;;
186;Laerm;55473;48.800;9.002;2023-03-31T16:31:04;51.61;46.57;65.98;;
186;Laerm;55473;48.800;9.002;2023-03-31T16:33:55;50.55;41.86;65.99;;
186;Laerm;55473;48.800;9.002;2023-03-31T16:36:21;51.47;41.56;66.47;;
186;Laerm;55473;48.800;9.002;2023-03-31T16:38:51;54.44;42.31;71.33;;
186;Laerm;55473;48.800;9.002;2023-03-31T16:41:19;50.35;41.51;67.21;;
186;Laerm;55473;48.800;9.002;2023-03-31T16:43:46;47.97;41.79;60.75;;
186;Laerm;55473;48.800;9.002;2023-03-31T16:46:12;49.08;41.55;60.58;;
186;Laerm;55473;48.800;9.002;2023-03-31T16:48:38;49.04;42.17;59.91;;
186;Laerm;55473;48.800;9.002;2023-03-31T16:51:03;48.79;40.99;63.62;;
186;Laerm;55473;48.800;9.002;2023-03-31T16:53:33;50.23;41.36;65.01;;
186;Laerm;55473;48.800;9.002;2023-03-31T16:56:02;48.26;41.15;62.61;;
186;Laerm;55473;48.800;9.002;2023-03-31T16:58:28;47.87;40.64;62.74;;
186;Laerm;55473;48.800;9.002;2023-03-31T17:00:58;50.17;41.39;70.92;;
186;Laerm;55473;48.800;9.002;2023-03-31T17:03:25;48.83;41.14;64.15;;
186;Laerm;55473;48.800;9.002;2023-03-31T17:05:54;49.91;41.61;66.34;;
186;Laerm;55473;48.800;9.002;2023-03-31T17:08:25;45.94;40.55;57.54;;
186;Laerm;55473;48.800;9.002;2023-03-31T17:11:02;46.53;41.01;61.29;;
186;Laerm;55473;48.800;9.002;2023-03-31T17:13:29;54.71;41.06;79.85;;
186;Laerm;55473;48.800;9.002;2023-03-31T17:15:57;48.00;41.14;63.37;;
186;Laerm;55473;48.800;9.002;2023-03-31T17:18:24;49.73;41.45;64.07;;
186;Laerm;55473;48.800;9.002;2023-03-31T17:20:51;49.08;42.28;67.94;;
186;Laerm;55473;48.800;9.002;2023-03-31T17:23:20;50.75;41.63;69.03;;
186;Laerm;55473;48.800;9.002;2023-03-31T17:25:52;46.75;40.89;65.82;;
186;Laerm;55473;48.800;9.002;2023-03-31T17:28:19;46.38;40.81;60.93;;
186;Laerm;55473;48.800;9.002;2023-03-31T17:30:45;45.94;40.94;56.58;;